Flight Track Log - Related Links

Times and Time Zones

All times are in EDT time to prevent confusion due to time zone crossing. See the EJA898 flight status page for this flight to view local times or setup timezone preferences in your user account.

Time Position Orientation Groundspeed Altitude Reporting Facility
EDT Latitude Longitude Course Direction KTS MPH feet Rate Location/Type
Thu 09:06:37 AM 42.4667 -71.3167 270° West 188 216 1,600  Level KA90
Thu 09:07:07 AM 42.4667 -71.3500 270° West 188 216 1,900 2,226 Climbing KA90
Thu 09:09:16 AM 42.3733 -71.4678 223° Southwest 231 266 7,500 3,238 Climbing Boston Center
Thu 09:10:16 AM 42.3617 -71.5692 261° West 242 278 12,100 3,700 Climbing Boston Center
Thu 09:11:16 AM 42.3497 -71.6564 260° West 264 304 14,900 1,950 Climbing Boston Center
Thu 09:12:16 AM 42.3317 -71.7606 257° West 279 321 16,000 550 Climbing Boston Center
Thu 09:13:16 AM 42.3094 -71.8814 256° West 307 353 16,000 50 Level Boston Center
Thu 09:14:16 AM 42.2892 -72.0022 257° West 330 380 16,100 45 Climbing Boston Center
Thu 09:15:28 AM 42.2625 -72.1511 256° West 330 380 16,100 -45 Level Boston Center
Thu 09:16:28 AM 42.2419 -72.2692 257° West 324 373 16,000 -50 Descending Boston Center
Thu 09:17:28 AM 42.2253 -72.3617 256° West 324 373 16,000  Level Boston Center
Thu 09:18:28 AM 42.2003 -72.5044 257° West 329 379 16,000  Level Boston Center
Thu 09:19:28 AM 42.1794 -72.6222 257° West 329 379 16,000  Level Boston Center
Thu 09:20:28 AM 42.1603 -72.7397 258° West 329 379 16,000 -500 Level Boston Center
Thu 09:21:28 AM 42.1517 -72.8603 265° West 334 384 15,000 -1,000 Descending Boston Center
Thu 09:22:28 AM 42.1450 -72.9722 265° West 334 384 14,000 -455 Descending Boston Center
Thu 09:23:40 AM 42.1336 -73.1317 265° West 328 377 14,000  Level Boston Center
Thu 09:24:40 AM 42.1267 -73.2350 265° West 328 377 14,000  Level Boston Center
Thu 09:25:52 AM 42.1153 -73.3719 264° West 328 377 14,000  Level Boston Center
Thu 09:26:52 AM 42.1078 -73.5175 266° West 328 377 14,000  Level Boston Center
Thu 09:27:52 AM 42.0981 -73.6406 264° West 328 377 14,000  Level Boston Center
Thu 09:29:04 AM 42.0908 -73.7439 265° West 328 377 14,000  Level Boston Center
Thu 09:30:04 AM 42.0783 -73.9003 264° West 328 377 14,000  Level Boston Center
Thu 09:31:04 AM 42.0683 -74.0203 264° West 334 384 14,000 -200 Level Boston Center
Thu 09:32:04 AM 42.0603 -74.1431 265° West 334 384 13,600 -600 Descending Boston Center
Thu 09:33:04 AM 42.0419 -74.2656 259° West 329 379 12,800 -900 Descending Boston Center
Thu 09:34:04 AM 41.9719 -74.3306 215° Southwest 327 376 11,800 -1,350 Descending Boston Center
Thu 09:35:04 AM 41.8792 -74.3892 205° Southwest 333 383 10,100 -1,150 Descending Boston Center
Thu 09:36:04 AM 41.8097 -74.4344 206° Southwest 324 373 9,500 -1,100 Descending Boston Center
Thu 09:37:04 AM 41.7358 -74.4822 206° Southwest 279 321 7,900 -1,250 Descending Boston Center
Thu 09:38:04 AM 41.6769 -74.5192 205° Southwest 268 308 7,000 -650 Descending Boston Center
Thu 09:39:04 AM 41.6011 -74.5556 200° South 268 308 6,600 -500 Descending Boston Center
Thu 09:40:04 AM 41.5319 -74.5700 189° South 268 308 6,000 -171 Descending Boston Center
Thu 09:42:35 AM 41.3333 -74.6167 190° South 269 310 6,000 -227 Level New York TRACON
Thu 09:43:35 AM 41.2667 -74.6333 191° South 278 320 5,200 -650 Descending New York TRACON
Thu 09:44:35 AM 41.1833 -74.6167 171° South 279 321 4,700 -632 Descending New York TRACON
Thu 09:45:29 AM 41.1167 -74.5833 159° South 279 321 4,000 -368 Descending New York TRACON
Thu 09:46:29 AM 41.0500 -74.5500 159° South 270 311 4,000 -250 Level New York TRACON
Thu 09:47:29 AM 40.9667 -74.5167 163° South 279 321 3,500 -500 Descending New York TRACON
Thu 09:48:29 AM 40.9000 -74.4833 159° South 261 300 3,000 -250 Descending New York TRACON
Thu 09:49:29 AM 40.8333 -74.4500 159° South 268 308 3,000  Level New York TRACON
Thu 09:50:23 AM 40.7833 -74.4000 143° Southeast 265 305 3,000 -400 Level New York TRACON
Thu 09:51:29 AM 40.7167 -74.3333 143° Southeast 235 270 2,200 -500 Descending New York TRACON
Thu 09:52:23 AM 40.7167 -74.2833 90° East 207 238 2,000 -316 Descending New York TRACON
Thu 09:53:23 AM 40.7500 -74.2167 57° Northeast 175 201 1,600 -300 Descending New York TRACON
Thu 09:54:23 AM 40.7833 -74.1667 49° Northeast 178 205 1,400 -158 Descending New York TRACON
Thu 09:55:17 AM 40.8000 -74.1333 57° Northeast 142 163 1,300 -368 Descending New York TRACON
Thu 09:56:17 AM 40.8167 -74.0833 66° East 149 171 700 -600 Descending New York TRACON
Thu 09:58:00 AM 40.8500 -74.0500 53° Northeast  Level FlightAware Approximate

Login

Don't have an account? Register now (free) for customized features, flight alerts, and more!